Time;durP1;ratioP1;P1;durP2;ratioP2;P2;SDS_P1;SDS_P2;PMS_P1;PMS_P2;Temp;Humidity;BMP_temperature;BMP_pressure;BME280_temperature;BME280_humidity;BME280_pressure;Samples;Min_cycle;Max_cycle;Signal;HPM_P1;HPM_P2
2024/03/17 00:01:19;;;;;;;13.27;6.28;;;;;;;6.29;100.00;102328.97;6082966;19;20042;-75
2024/03/17 00:03:22;;;;;;;8.63;4.93;;;;;;;6.30;100.00;102320.25;6082292;19;20127;-74
2024/03/17 00:05:24;;;;;;;14.65;6.45;;;;;;;6.29;100.00;102317.63;6083918;19;20558;-74
2024/03/17 00:07:28;;;;;;;10.80;5.90;;;;;;;6.28;100.00;102315.91;6081207;19;20478;-75
2024/03/17 00:09:32;;;;;;;16.83;6.60;;;;;;;6.26;100.00;102325.47;6082897;19;20007;-73
2024/03/17 00:11:36;;;;;;;14.38;6.43;;;;;;;6.21;100.00;102319.38;6084848;19;20027;-74
2024/03/17 00:13:37;;;;;;;10.57;5.43;;;;;;;6.25;100.00;102316.78;6082643;19;20056;-73
2024/03/17 00:15:41;;;;;;;17.25;6.53;;;;;;;6.26;100.00;102312.41;6083694;19;20014;-74
2024/03/17 00:17:42;;;;;;;15.05;6.47;;;;;;;6.27;100.00;102306.34;6080810;19;20315;-74
2024/03/17 00:19:46;;;;;;;14.52;6.18;;;;;;;6.29;100.00;102310.69;6083310;19;20007;-74
2024/03/17 00:21:47;;;;;;;11.10;5.93;;;;;;;6.29;100.00;102313.31;6085316;19;20019;-74
2024/03/17 00:23:52;;;;;;;12.85;6.05;;;;;;;6.33;100.00;102311.56;6084510;19;20050;-73
2024/03/17 00:25:55;;;;;;;11.43;5.43;;;;;;;6.35;100.00;102308.06;6084191;19;20021;-73
2024/03/17 00:28:00;;;;;;;13.23;6.30;;;;;;;6.29;100.00;102313.31;6084580;19;20392;-74
2024/03/17 00:30:02;;;;;;;14.00;5.85;;;;;;;6.33;100.00;102312.44;6083185;19;20015;-75
2024/03/17 00:32:11;;;;;;;11.30;6.28;;;;;;;6.34;100.00;102310.69;6083864;19;20018;-73
2024/03/17 00:34:12;;;;;;;12.38;5.20;;;;;;;6.34;100.00;102314.16;6083865;19;20010;-74
2024/03/17 00:36:16;;;;;;;9.95;5.55;;;;;;;6.36;100.00;102311.56;6082125;19;20002;-74
2024/03/17 00:38:18;;;;;;;9.25;5.38;;;;;;;6.28;100.00;102315.91;6082201;19;20014;-73
2024/03/17 00:40:22;;;;;;;11.70;5.95;;;;;;;6.33;100.00;102308.94;6082661;19;20008;-73
2024/03/17 00:42:26;;;;;;;16.48;5.10;;;;;;;6.40;100.00;102312.41;6082627;19;20010;-75
2024/03/17 00:44:30;;;;;;;10.75;4.68;;;;;;;6.36;100.00;102308.94;6082963;19;20006;-74
2024/03/17 00:46:31;;;;;;;14.15;6.53;;;;;;;6.38;100.00;102309.81;6083934;19;20384;-74
2024/03/17 00:48:35;;;;;;;12.73;5.40;;;;;;;6.40;100.00;102304.59;6088001;19;20364;-74
2024/03/17 00:50:37;;;;;;;10.45;5.28;;;;;;;6.43;100.00;102300.25;6087866;19;20009;-74
2024/03/17 00:52:41;;;;;;;14.23;4.95;;;;;;;6.48;100.00;102297.66;6083011;19;20300;-75
2024/03/17 00:54:42;;;;;;;9.32;4.85;;;;;;;6.53;100.00;102295.88;6087731;19;20011;-74
2024/03/17 00:56:46;;;;;;;12.57;4.57;;;;;;;6.54;100.00;102297.63;6086549;19;20026;-75
2024/03/17 00:58:51;;;;;;;14.35;6.45;;;;;;;6.55;100.00;102294.13;6087202;19;20002;-73
2024/03/17 01:00:55;;;;;;;14.68;5.43;;;;;;;6.52;100.00;102287.19;6088594;19;20031;-74
2024/03/17 01:02:57;;;;;;;11.65;5.25;;;;;;;6.50;100.00;102288.06;6084905;19;20454;-73
2024/03/17 01:05:01;;;;;;;14.95;5.50;;;;;;;6.54;100.00;102281.97;6087111;19;20010;-74
2024/03/17 01:07:04;;;;;;;15.32;6.20;;;;;;;6.59;100.00;102281.09;6087705;19;20031;-73
2024/03/17 01:09:08;;;;;;;11.88;5.78;;;;;;;6.58;100.00;102279.38;6087191;19;20399;-74
2024/03/17 01:11:14;;;;;;;11.20;5.20;;;;;;;6.61;100.00;102273.25;6087191;19;20139;-74
2024/03/17 01:13:23;;;;;;;14.25;6.90;;;;;;;6.63;100.00;102275.84;6087851;19;20006;-75
2024/03/17 01:15:27;;;;;;;14.38;6.28;;;;;;;6.64;100.00;102275.88;6083005;19;20010;-72
2024/03/17 01:17:31;;;;;;;19.63;6.57;;;;;;;6.62;100.00;102268.91;6087745;19;20010;-75
2024/03/17 01:19:35;;;;;;;13.18;5.72;;;;;;;6.57;100.00;102275.00;6085102;19;20006;-73
2024/03/17 01:21:39;;;;;;;12.30;6.22;;;;;;;6.56;100.00;102269.78;6085109;19;20014;-74
2024/03/17 01:23:41;;;;;;;11.77;5.82;;;;;;;6.49;100.00;102268.91;6085096;19;20054;-74
2024/03/17 01:25:45;;;;;;;10.88;5.43;;;;;;;6.44;100.00;102259.34;6086454;19;20006;-73
2024/03/17 01:27:46;;;;;;;14.40;6.05;;;;;;;6.49;100.00;102261.06;6088065;19;20519;-74
2024/03/17 01:29:50;;;;;;;11.77;5.65;;;;;;;6.43;100.00;102268.06;6089850;19;20011;-75
2024/03/17 01:31:55;;;;;;;16.25;6.18;;;;;;;6.37;100.00;102258.47;6088418;19;20036;-76
2024/03/17 01:33:59;;;;;;;12.02;6.10;;;;;;;6.33;100.00;102261.94;6088456;19;20059;-74
2024/03/17 01:36:01;;;;;;;11.68;5.78;;;;;;;6.26;100.00;102260.19;6087832;19;20010;-73
2024/03/17 01:38:04;;;;;;;14.38;7.10;;;;;;;6.24;100.00;102257.63;6088447;19;20119;-75
2024/03/17 01:40:09;;;;;;;13.00;5.95;;;;;;;6.20;100.00;102260.22;6087100;19;20015;-74
2024/03/17 01:42:13;;;;;;;15.60;5.95;;;;;;;6.09;100.00;102257.59;6087298;19;20459;-74
2024/03/17 01:44:24;;;;;;;14.43;5.85;;;;;;;6.04;100.00;102257.59;6087268;19;20010;-73
2024/03/17 01:46:28;;;;;;;13.93;6.20;;;;;;;6.02;100.00;102254.09;6087026;19;20036;-76
2024/03/17 01:48:35;;;;;;;9.45;5.40;;;;;;;6.08;100.00;102251.50;6085104;19;20010;-73
2024/03/17 01:50:39;;;;;;;15.95;6.85;;;;;;;6.15;100.00;102247.16;6087482;19;20011;-74
2024/03/17 01:52:40;;;;;;;12.82;6.22;;;;;;;6.14;100.00;102251.50;6083316;19;20006;-75
2024/03/17 01:54:46;;;;;;;20.13;7.32;;;;;;;6.02;100.00;102240.19;6086774;19;20025;-74
2024/03/17 01:56:48;;;;;;;12.85;6.88;;;;;;;6.03;100.00;102242.81;6087350;19;20010;-75
2024/03/17 01:58:53;;;;;;;13.60;6.85;;;;;;;5.94;100.00;102238.44;6085902;19;20568;-75
2024/03/17 02:00:54;;;;;;;12.40;6.45;;;;;;;5.96;100.00;102235.84;6086169;19;20010;-74
2024/03/17 02:02:58;;;;;;;13.75;7.38;;;;;;;5.93;100.00;102230.59;6086993;19;20459;-74
2024/03/17 02:05:04;;;;;;;13.68;6.22;;;;;;;5.85;100.00;102232.31;6088276;19;20007;-73
2024/03/17 02:07:08;;;;;;;12.77;6.35;;;;;;;5.78;100.00;102230.56;6086506;19;20014;-73
2024/03/17 02:09:10;;;;;;;16.20;6.72;;;;;;;5.82;100.00;102230.56;6086986;19;20007;-73
2024/03/17 02:11:27;;;;;;;13.02;5.30;;;;;;;5.82;100.00;102230.56;6087007;19;20002;-73
2024/03/17 02:13:29;;;;;;;13.63;6.65;;;;;;;5.79;100.00;102227.06;6088271;19;20551;-73
2024/03/17 02:15:33;;;;;;;14.07;6.50;;;;;;;5.81;100.00;102217.50;6086043;19;20006;-74
2024/03/17 02:17:34;;;;;;;15.02;6.78;;;;;;;5.84;100.00;102220.13;6085367;19;20479;-74
2024/03/17 02:19:38;;;;;;;16.08;5.88;;;;;;;5.84;100.00;102218.38;6084398;19;20031;-73
2024/03/17 02:21:42;;;;;;;17.80;6.95;;;;;;;5.82;100.00;102217.53;6084729;19;20480;-74
2024/03/17 02:23:48;;;;;;;14.45;7.05;;;;;;;5.83;100.00;102218.41;6085263;19;20111;-74
2024/03/17 02:25:49;;;;;;;19.33;7.30;;;;;;;5.78;100.00;102212.31;6086124;19;20066;-75
2024/03/17 02:27:53;;;;;;;10.07;5.68;;;;;;;5.76;100.00;102211.41;6086135;19;20483;-74
2024/03/17 02:29:55;;;;;;;14.07;6.65;;;;;;;5.73;100.00;102202.72;6085230;19;20011;-74
2024/03/17 02:31:59;;;;;;;13.75;7.05;;;;;;;5.78;100.00;102209.69;6085443;19;20011;-73
2024/03/17 02:34:00;;;;;;;15.27;7.82;;;;;;;5.78;100.00;102207.94;6086620;19;20823;-73
2024/03/17 02:36:04;;;;;;;16.52;6.53;;;;;;;5.89;100.00;102207.97;6085765;19;20007;-73
2024/03/17 02:38:15;;;;;;;13.35;6.43;;;;;;;5.98;100.00;102201.91;6085664;19;20025;-74
2024/03/17 02:40:22;;;;;;;13.10;6.68;;;;;;;5.93;100.00;102205.41;6083413;19;20005;-75
2024/03/17 02:42:24;;;;;;;14.68;6.57;;;;;;;6.04;100.00;102201.91;6084855;19;20077;-74
2024/03/17 02:44:28;;;;;;;14.68;6.65;;;;;;;6.08;100.00;102190.59;6085069;19;20009;-74
2024/03/17 02:46:34;;;;;;;13.43;6.88;;;;;;;6.13;100.00;102194.06;6083217;19;20053;-73
2024/03/17 02:48:36;;;;;;;15.60;6.50;;;;;;;6.21;100.00;102196.69;6083816;19;20050;-74
2024/03/17 02:50:40;;;;;;;13.27;6.43;;;;;;;6.26;100.00;102192.34;6082658;19;20002;-73
2024/03/17 02:52:44;;;;;;;21.60;8.35;;;;;;;6.19;100.00;102188.88;6081591;19;20601;-73
2024/03/17 02:54:48;;;;;;;17.33;6.30;;;;;;;6.23;100.00;102193.22;6085581;19;20014;-73
2024/03/17 02:56:52;;;;;;;15.38;6.93;;;;;;;6.25;100.00;102190.59;6085041;19;20071;-74
2024/03/17 02:58:58;;;;;;;20.40;7.60;;;;;;;6.27;100.00;102187.13;6083493;19;20065;-73
2024/03/17 03:01:02;;;;;;;18.52;7.53;;;;;;;6.28;100.00;102190.59;6085050;19;20002;-74
2024/03/17 03:03:09;;;;;;;14.75;7.15;;;;;;;6.31;100.00;102185.38;6085146;19;20006;-74
2024/03/17 03:05:13;;;;;;;16.05;6.82;;;;;;;6.36;100.00;102186.22;6084205;19;20466;-73
2024/03/17 03:07:18;;;;;;;16.15;7.78;;;;;;;6.42;100.00;102178.38;6085147;19;20014;-74
2024/03/17 03:09:30;;;;;;;15.27;6.75;;;;;;;6.45;100.00;102175.78;6084774;19;20051;-73
2024/03/17 03:11:34;;;;;;;19.40;8.40;;;;;;;6.52;100.00;102180.09;6084115;19;20002;-73
2024/03/17 03:13:41;;;;;;;14.60;7.47;;;;;;;6.52;100.00;102174.03;6085492;19;20107;-74
2024/03/17 03:15:45;;;;;;;13.07;6.32;;;;;;;6.52;100.00;102177.50;6085128;19;20274;-74
2024/03/17 03:17:49;;;;;;;23.80;7.85;;;;;;;6.55;100.00;102177.47;6084834;19;20031;-73
2024/03/17 03:19:55;;;;;;;12.80;6.65;;;;;;;6.58;100.00;102166.16;6084737;19;20090;-74
2024/03/17 03:21:56;;;;;;;14.40;7.20;;;;;;;6.65;100.00;102148.75;6082490;19;20002;-74
2024/03/17 03:24:00;;;;;;;14.40;6.00;;;;;;;6.68;100.00;102148.72;6083012;19;20331;-73
2024/03/17 03:26:09;;;;;;;14.80;6.93;;;;;;;6.72;100.00;102135.66;6083742;19;20379;-74
2024/03/17 03:28:13;;;;;;;14.57;7.88;;;;;;;6.71;100.00;102140.88;6083024;19;20018;-74
2024/03/17 03:30:21;;;;;;;11.82;7.00;;;;;;;6.68;100.00;102130.44;6083362;19;20011;-74
2024/03/17 03:32:27;;;;;;;18.98;7.18;;;;;;;6.65;100.00;102127.84;6082674;19;20002;-73
2024/03/17 03:34:31;;;;;;;16.45;8.23;;;;;;;6.66;100.00;102124.34;6083497;19;20025;-73
2024/03/17 03:36:34;;;;;;;11.30;6.43;;;;;;;6.67;100.00;102131.31;6082432;19;20319;-73
2024/03/17 03:38:38;;;;;;;14.43;6.93;;;;;;;6.64;100.00;102126.97;6082138;19;20018;-73
2024/03/17 03:40:42;;;;;;;17.38;7.75;;;;;;;6.66;100.00;102125.25;6082291;19;20362;-73
2024/03/17 03:42:47;;;;;;;15.98;7.22;;;;;;;6.65;100.00;102127.84;6082510;19;20030;-73
2024/03/17 03:44:51;;;;;;;16.83;8.23;;;;;;;6.70;100.00;102120.88;6081483;19;20003;-75
2024/03/17 03:47:00;;;;;;;16.58;8.02;;;;;;;6.63;100.00;102124.38;6081867;19;20009;-73
2024/03/17 03:49:09;;;;;;;22.20;7.65;;;;;;;6.74;100.00;102119.97;6081607;19;20006;-75
2024/03/17 03:51:14;;;;;;;19.48;7.28;;;;;;;6.78;100.00;102119.94;6082265;19;20299;-74
2024/03/17 03:53:34;;;;;;;15.10;7.13;;;;;;;6.74;100.00;102109.50;6080223;19;20022;-78
2024/03/17 03:55:39;;;;;;;15.93;8.30;;;;;;;6.73;100.00;102107.78;6082700;19;20022;-74
2024/03/17 03:57:45;;;;;;;17.80;7.40;;;;;;;6.80;100.00;102101.66;6083524;19;20003;-76
2024/03/17 03:59:50;;;;;;;16.88;8.75;;;;;;;6.73;100.00;102090.34;6083137;19;20018;-75
2024/03/17 04:01:58;;;;;;;16.30;6.70;;;;;;;6.70;100.00;102099.97;6080406;19;20011;-75
2024/03/17 04:04:04;;;;;;;19.83;8.90;;;;;;;6.72;100.00;102093.00;6083628;19;20011;-74
2024/03/17 04:06:10;;;;;;;18.02;6.75;;;;;;;6.63;100.00;102093.03;6083717;19;20006;-73
2024/03/17 04:08:14;;;;;;;16.00;7.63;;;;;;;6.65;100.00;102093.88;6084453;19;20466;-74
2024/03/17 04:10:22;;;;;;;20.05;8.13;;;;;;;6.66;100.00;102098.22;6079414;19;20363;-74
2024/03/17 04:12:27;;;;;;;13.95;7.80;;;;;;;6.68;100.00;102110.41;6080759;19;20006;-73
2024/03/17 04:14:34;;;;;;;15.85;7.88;;;;;;;6.59;100.00;102108.72;6082678;19;20028;-74
2024/03/17 04:16:48;;;;;;;19.48;8.52;;;;;;;6.50;100.00;102113.97;6080938;19;20030;-74
2024/03/17 04:18:49;;;;;;;21.23;8.50;;;;;;;6.53;100.00;102107.84;6082268;19;20046;-73
2024/03/17 04:20:57;;;;;;;15.88;8.40;;;;;;;6.65;100.00;102115.66;6081582;19;20002;-73
2024/03/17 04:23:03;;;;;;;19.33;9.07;;;;;;;6.69;100.00;102112.16;6080572;19;20625;-74
2024/03/17 04:25:13;;;;;;;19.10;7.43;;;;;;;6.72;100.00;102108.66;6081688;19;20013;-74
2024/03/17 04:27:18;;;;;;;20.85;9.43;;;;;;;6.72;100.00;102103.44;6081443;19;20014;-74
2024/03/17 04:29:20;;;;;;;21.38;9.00;;;;;;;6.71;100.00;102093.84;6082772;19;20022;-74
2024/03/17 04:31:27;;;;;;;16.30;9.57;;;;;;;6.77;100.00;102094.72;6082825;19;20002;-75
2024/03/17 04:33:31;;;;;;;17.98;8.18;;;;;;;6.75;100.00;102096.44;6082329;19;20007;-74
2024/03/17 04:35:38;;;;;;;22.25;8.40;;;;;;;6.74;100.00;102091.22;6080181;19;20647;-74
2024/03/17 04:37:45;;;;;;;15.88;8.73;;;;;;;6.70;100.00;102092.13;6083287;19;20044;-74
2024/03/17 04:39:50;;;;;;;19.73;9.10;;;;;;;6.74;100.00;102080.78;6084037;19;20526;-73
2024/03/17 04:41:57;;;;;;;23.08;8.75;;;;;;;6.64;100.00;102089.56;6084085;19;20054;-74
2024/03/17 04:44:01;;;;;;;23.13;8.82;;;;;;;6.65;100.00;102088.66;6085439;19;20035;-74
2024/03/17 04:46:11;;;;;;;18.42;9.02;;;;;;;6.67;100.00;102097.38;6083723;19;20003;-74
2024/03/17 04:48:13;;;;;;;14.85;9.82;;;;;;;6.63;100.00;102098.25;6084546;19;20363;-74
2024/03/17 04:50:17;;;;;;;23.85;10.93;;;;;;;6.65;100.00;102088.66;6083765;19;20065;-75
2024/03/17 04:52:21;;;;;;;24.95;9.65;;;;;;;6.58;100.00;102093.03;6078541;19;20391;-72
2024/03/17 04:54:30;;;;;;;22.33;11.02;;;;;;;6.55;100.00;102091.28;6081569;19;20018;-73
2024/03/17 04:56:34;;;;;;;23.13;10.02;;;;;;;6.64;100.00;102089.56;6080529;19;20015;-73
2024/03/17 04:58:38;;;;;;;20.20;10.25;;;;;;;6.67;100.00;102086.91;6081754;19;20014;-73
2024/03/17 05:00:39;;;;;;;21.40;8.98;;;;;;;6.60;100.00;102086.94;6081012;19;20031;-74
2024/03/17 05:02:43;;;;;;;23.17;9.15;;;;;;;6.66;100.00;102082.56;6080404;19;20388;-74
2024/03/17 05:04:47;;;;;;;17.55;9.57;;;;;;;6.66;100.00;102086.06;6081192;19;20400;-74
2024/03/17 05:06:49;;;;;;;22.05;10.27;;;;;;;6.69;100.00;102082.53;6082490;19;20358;-74
2024/03/17 05:08:53;;;;;;;22.80;9.38;;;;;;;6.67;100.00;102074.72;6081369;19;20358;-74
2024/03/17 05:11:04;;;;;;;21.25;9.73;;;;;;;6.64;100.00;102076.50;6081382;19;20015;-75
2024/03/17 05:13:08;;;;;;;26.08;11.35;;;;;;;6.68;100.00;102080.81;6081651;19;20017;-75
2024/03/17 05:15:12;;;;;;;22.73;10.25;;;;;;;6.59;100.00;102077.38;6082238;19;20022;-74
2024/03/17 05:17:14;;;;;;;19.33;9.13;;;;;;;6.64;100.00;102073.88;6081628;19;20003;-74
2024/03/17 05:19:17;;;;;;;23.73;9.35;;;;;;;6.64;100.00;102074.75;6079007;19;20018;-75
2024/03/17 05:21:24;;;;;;;23.15;10.98;;;;;;;6.63;100.00;102083.44;6079740;19;20714;-75
2024/03/17 05:23:28;;;;;;;23.77;9.88;;;;;;;6.56;100.00;102077.38;6082933;19;20006;-74
2024/03/17 05:25:36;;;;;;;22.23;10.30;;;;;;;6.60;100.00;102084.31;6082234;19;20014;-75
2024/03/17 05:27:43;;;;;;;24.75;10.10;;;;;;;6.57;100.00;102081.72;6081828;19;20006;-72
2024/03/17 05:29:46;;;;;;;21.85;9.63;;;;;;;6.64;100.00;102084.31;6082038;19;20006;-72
2024/03/17 05:31:50;;;;;;;18.48;9.90;;;;;;;6.61;100.00;102074.75;6081347;19;20006;-73
2024/03/17 05:33:57;;;;;;;21.52;9.35;;;;;;;6.63;100.00;102075.59;6084027;19;20317;-73
2024/03/17 05:36:02;;;;;;;25.33;10.73;;;;;;;6.64;100.00;102077.34;6087553;19;20504;-74
2024/03/17 05:38:10;;;;;;;23.95;10.85;;;;;;;6.69;100.00;102085.16;6084914;19;20007;-73
2024/03/17 05:40:14;;;;;;;21.33;9.95;;;;;;;6.64;100.00;102077.34;6086056;19;20009;-73
2024/03/17 05:42:19;;;;;;;21.40;9.30;;;;;;;6.68;100.00;102076.44;6085031;19;20388;-73
2024/03/17 05:44:28;;;;;;;21.63;11.02;;;;;;;6.69;100.00;102077.31;6086318;19;20733;-74
2024/03/17 05:46:32;;;;;;;20.63;9.60;;;;;;;6.72;100.00;102066.88;6082582;19;20010;-74
2024/03/17 05:48:37;;;;;;;18.67;8.23;;;;;;;6.69;100.00;102061.63;6085217;19;20346;-75
2024/03/17 05:50:39;;;;;;;20.27;9.75;;;;;;;6.75;100.00;102061.63;6085754;19;20010;-74
2024/03/17 05:52:43;;;;;;;23.98;10.32;;;;;;;6.79;100.00;102063.34;6083270;19;20006;-74
2024/03/17 05:54:46;;;;;;;22.52;9.80;;;;;;;6.76;100.00;102056.38;6086184;19;20006;-73
2024/03/17 05:56:50;;;;;;;21.77;10.13;;;;;;;6.79;100.00;102066.84;6082693;19;20047;-75
2024/03/17 05:58:53;;;;;;;17.83;9.50;;;;;;;6.83;100.00;102070.28;6083940;19;20000;-74
2024/03/17 06:01:00;;;;;;;25.45;10.20;;;;;;;6.87;100.00;102065.91;6085344;19;20011;-74
2024/03/17 06:03:02;;;;;;;32.28;10.38;;;;;;;6.88;100.00;102062.44;6086417;19;20002;-73
2024/03/17 06:05:10;;;;;;;31.42;11.10;;;;;;;6.88;100.00;102065.91;6085706;19;20014;-75
2024/03/17 06:07:13;;;;;;;27.23;10.93;;;;;;;6.87;100.00;102066.78;6086498;19;20003;-74
2024/03/17 06:09:19;;;;;;;28.35;10.95;;;;;;;6.88;100.00;102065.06;6085741;19;20115;-74
2024/03/17 06:11:23;;;;;;;21.83;10.10;;;;;;;6.92;100.00;102079.81;6086494;19;20006;-75
2024/03/17 06:13:24;;;;;;;25.20;10.98;;;;;;;6.92;100.00;102072.84;6084616;19;19999;-74
2024/03/17 06:15:29;;;;;;;24.30;9.85;;;;;;;6.95;100.00;102071.94;6084792;19;20006;-74
2024/03/17 06:17:36;;;;;;;21.02;11.43;;;;;;;6.99;100.00;102071.06;6086294;19;20006;-74
2024/03/17 06:19:39;;;;;;;26.20;11.10;;;;;;;7.01;100.00;102078.03;6085237;19;20652;-74
2024/03/17 06:21:43;;;;;;;23.55;10.90;;;;;;;6.99;100.00;102074.56;6085695;19;20009;-74
2024/03/17 06:23:47;;;;;;;18.65;9.27;;;;;;;7.04;100.00;102074.53;6086191;19;20003;-74
2024/03/17 06:25:55;;;;;;;28.27;10.68;;;;;;;7.10;100.00;102066.63;6086974;19;20031;-74
2024/03/17 06:28:01;;;;;;;23.38;10.57;;;;;;;7.10;100.00;102073.63;6085009;19;20011;-74
2024/03/17 06:30:09;;;;;;;29.40;11.32;;;;;;;7.17;100.00;102080.56;6082947;19;20002;-74
2024/03/17 06:32:13;;;;;;;25.77;11.27;;;;;;;7.20;100.00;102080.53;6085482;19;20598;-74
2024/03/17 06:34:20;;;;;;;20.20;11.10;;;;;;;7.20;100.00;102075.31;6087393;19;20003;-74
2024/03/17 06:36:22;;;;;;;25.30;10.60;;;;;;;7.24;100.00;102074.38;6088274;19;20018;-74
2024/03/17 06:38:26;;;;;;;27.02;11.23;;;;;;;7.29;100.00;102074.38;6085315;19;20002;-74
2024/03/17 06:40:28;;;;;;;25.38;11.20;;;;;;;7.29;100.00;102064.75;6086455;19;20011;-73
2024/03/17 06:42:32;;;;;;;19.17;10.57;;;;;;;7.37;100.00;102067.31;6082915;19;20007;-73
2024/03/17 06:44:36;;;;;;;21.00;10.93;;;;;;;7.44;100.00;102067.28;6085958;19;20006;-75
2024/03/17 06:46:39;;;;;;;24.52;11.20;;;;;;;7.43;100.00;102070.78;6086600;19;20011;-73
2024/03/17 06:48:43;;;;;;;25.27;10.38;;;;;;;7.43;100.00;102070.78;6083330;19;21617;-73
2024/03/17 06:50:51;;;;;;;21.00;9.90;;;;;;;7.48;100.00;102076.84;6083518;19;20006;-73
2024/03/17 06:52:55;;;;;;;18.73;9.27;;;;;;;7.45;100.00;102076.88;6081648;19;20439;-73
2024/03/17 06:54:59;;;;;;;21.35;10.10;;;;;;;7.46;100.00;102077.72;6085135;19;20014;-74
2024/03/17 06:57:03;;;;;;;24.45;11.45;;;;;;;7.54;100.00;102089.00;6083031;19;20002;-73
2024/03/17 06:59:07;;;;;;;25.50;11.38;;;;;;;7.60;100.00;102080.22;6082849;19;20319;-74
2024/03/17 07:01:12;;;;;;;29.38;11.88;;;;;;;7.64;100.00;102081.97;6083475;19;20013;-73
2024/03/17 07:03:18;;;;;;;26.98;11.65;;;;;;;7.68;100.00;102081.03;6081172;19;20471;-74
2024/03/17 07:05:22;;;;;;;24.95;11.15;;;;;;;7.73;100.00;102081.00;6083590;19;20002;-74
2024/03/17 07:07:26;;;;;;;25.05;11.00;;;;;;;7.78;100.00;102071.38;6084338;19;20003;-74
2024/03/17 07:09:30;;;;;;;31.77;12.32;;;;;;;7.82;100.00;102075.66;6086851;19;20057;-74
2024/03/17 07:11:34;;;;;;;27.75;11.85;;;;;;;7.88;100.00;102071.25;6086452;19;20010;-74
2024/03/17 07:13:41;;;;;;;21.27;9.98;;;;;;;7.96;100.00;102078.19;6084101;19;20014;-74
2024/03/17 07:15:47;;;;;;;27.75;13.13;;;;;;;8.03;100.00;102087.69;6084445;19;20030;-74
2024/03/17 07:17:52;;;;;;;28.60;11.50;;;;;;;8.05;100.00;102083.31;6085284;19;20006;-74
2024/03/17 07:19:56;;;;;;;23.45;11.30;;;;;;;8.06;100.00;102085.94;6085449;19;20007;-75
2024/03/17 07:22:00;;;;;;;30.83;11.95;;;;;;;8.02;100.00;102088.56;6086411;19;20018;-75
2024/03/17 07:24:07;;;;;;;25.05;10.80;;;;;;;8.08;100.00;102094.63;6085879;19;20450;-73
2024/03/17 07:26:14;;;;;;;25.70;10.35;;;;;;;8.08;100.00;102093.75;6086945;19;20471;-73
2024/03/17 07:28:15;;;;;;;24.92;11.15;;;;;;;8.09;100.00;102087.66;6085672;19;20007;-76
2024/03/17 07:30:20;;;;;;;25.73;11.55;;;;;;;8.11;100.00;102085.88;6085719;19;20074;-73
2024/03/17 07:32:27;;;;;;;34.30;12.13;;;;;;;8.10;100.00;102091.97;6085501;19;20018;-73
2024/03/17 07:34:35;;;;;;;26.83;11.05;;;;;;;8.14;100.00;102093.69;6086899;19;20046;-73
2024/03/17 07:36:39;;;;;;;21.92;9.43;;;;;;;8.07;100.00;102092.03;6085532;19;20010;-73
2024/03/17 07:38:43;;;;;;;26.23;12.85;;;;;;;8.07;100.00;102095.50;6082672;19;20042;-73
2024/03/17 07:41:00;;;;;;;22.63;10.20;;;;;;;8.25;100.00;102094.44;6084386;19;20003;-74
2024/03/17 07:43:01;;;;;;;29.45;10.95;;;;;;;8.29;100.00;102083.06;6083109;19;20006;-75
2024/03/17 07:45:08;;;;;;;28.48;11.90;;;;;;;8.39;100.00;102088.19;6084441;19;20025;-74
2024/03/17 07:47:13;;;;;;;24.42;10.65;;;;;;;8.41;100.00;102087.31;6085231;19;20021;-76
2024/03/17 07:49:16;;;;;;;24.88;11.05;;;;;;;8.47;100.00;102086.38;6083926;19;20017;-75
2024/03/17 07:51:21;;;;;;;25.70;10.75;;;;;;;8.43;100.00;102084.69;6085296;19;20402;-74
2024/03/17 07:53:24;;;;;;;25.38;12.45;;;;;;;8.49;100.00;102095.09;6082375;19;20041;-75
2024/03/17 07:55:30;;;;;;;19.97;10.27;;;;;;;8.42;100.00;102091.66;6083832;19;20006;-74
2024/03/17 07:57:36;;;;;;;23.73;12.70;;;;;;;8.50;100.00;102091.56;6080862;19;20263;-74
2024/03/17 07:59:42;;;;;;;27.17;10.57;;;;;;;8.58;100.00;102087.09;6084390;19;20010;-74
2024/03/17 08:01:44;;;;;;;20.90;10.65;;;;;;;8.62;100.00;102082.72;6084076;19;20070;-73
2024/03/17 08:03:53;;;;;;;30.50;11.13;;;;;;;8.65;100.00;102086.16;6080164;19;20011;-73
2024/03/17 08:05:58;;;;;;;25.90;10.93;;;;;;;8.63;100.00;102076.56;6083708;19;20018;-74
2024/03/17 08:08:01;;;;;;;26.02;11.05;;;;;;;8.67;100.00;102088.78;6082396;19;20003;-74
2024/03/17 08:10:06;;;;;;;32.83;11.68;;;;;;;8.70;100.00;102084.34;6080793;19;20578;-73
2024/03/17 08:12:13;;;;;;;25.38;11.68;;;;;;;8.63;100.00;102080.06;6082475;19;20003;-74
2024/03/17 08:14:17;;;;;;;22.00;10.45;;;;;;;8.68;100.00;102083.50;6084160;19;20462;-74
2024/03/17 08:16:21;;;;;;;28.33;11.52;;;;;;;8.79;100.00;102086.88;6084379;19;20026;-74
2024/03/17 08:18:26;;;;;;;29.70;10.95;;;;;;;8.75;100.00;102079.91;6085778;19;20034;-75
2024/03/17 08:20:30;;;;;;;26.77;12.27;;;;;;;8.88;100.00;102077.13;6084988;19;20014;-76
2024/03/17 08:22:32;;;;;;;27.92;10.45;;;;;;;8.81;100.00;102078.09;6083973;19;20125;-74
2024/03/17 08:24:36;;;;;;;26.10;10.40;;;;;;;8.79;100.00;102081.63;6082920;19;20010;-74
2024/03/17 08:26:40;;;;;;;26.63;11.10;;;;;;;8.78;100.00;102082.50;6077639;19;20038;-74
2024/03/17 08:28:44;;;;;;;28.52;11.35;;;;;;;8.79;100.00;102084.25;6079491;19;20049;-74
2024/03/17 08:30:56;;;;;;;31.25;10.75;;;;;;;8.88;100.00;102082.38;6081811;19;20006;-74
2024/03/17 08:33:00;;;;;;;24.65;10.20;;;;;;;8.78;100.00;102084.25;6082139;19;20052;-73
2024/03/17 08:35:04;;;;;;;27.58;10.80;;;;;;;8.86;100.00;102082.38;6083457;19;20007;-76
2024/03/17 08:37:08;;;;;;;27.52;11.32;;;;;;;8.92;100.00;102065.72;6082450;19;20010;-73
2024/03/17 08:39:13;;;;;;;30.35;10.23;;;;;;;9.02;100.00;102073.41;6083347;19;20010;-74
2024/03/17 08:41:18;;;;;;;20.98;9.35;;;;;;;9.16;100.00;102059.22;6082045;19;20007;-74
2024/03/17 08:43:20;;;;;;;26.15;11.55;;;;;;;9.18;100.00;102063.56;6082427;19;19999;-74
2024/03/17 08:45:28;;;;;;;25.67;9.80;;;;;;;9.35;100.00;102062.47;6078760;19;20072;-73
2024/03/17 08:47:34;;;;;;;25.65;11.30;;;;;;;9.40;100.00;102063.22;6082236;19;20015;-74
2024/03/17 08:49:38;;;;;;;25.10;10.57;;;;;;;9.45;100.00;102067.53;6081262;19;20003;-74
2024/03/17 08:51:42;;;;;;;26.65;11.23;;;;;;;9.37;100.00;102065.91;6081476;19;20002;-73
2024/03/17 08:53:46;;;;;;;24.67;11.00;;;;;;;9.38;100.00;102054.53;6079346;19;20450;-73
2024/03/17 08:55:47;;;;;;;30.50;11.45;;;;;;;9.46;100.00;102050.03;6081452;19;20502;-74
2024/03/17 08:57:53;;;;;;;25.05;11.45;;;;;;;9.60;100.00;102057.66;6081797;19;20018;-73
2024/03/17 08:59:57;;;;;;;27.05;11.18;;;;;;;9.64;100.00;102046.25;6080938;19;20017;-76
2024/03/17 09:02:01;;;;;;;21.60;10.40;;;;;;;9.65;100.00;102046.19;6082654;19;20119;-75
2024/03/17 09:04:05;;;;;;;21.08;10.27;;;;;;;9.74;100.00;102055.69;6078560;19;20302;-73
2024/03/17 09:06:19;;;;;;;24.73;11.55;;;;;;;9.97;100.00;102036.88;6079337;19;20010;-77
2024/03/17 09:08:28;;;;;;;24.20;11.18;;;;;;;10.06;100.00;102036.72;6086907;19;20014;-76
2024/03/17 09:10:29;;;;;;;26.33;11.30;;;;;;;10.11;100.00;102045.38;6087213;19;20006;-74
2024/03/17 09:12:33;;;;;;;29.55;10.93;;;;;;;10.19;100.00;102049.59;6085431;19;20436;-73
2024/03/17 09:14:37;;;;;;;22.27;11.10;;;;;;;10.17;100.00;102046.16;6088333;19;20054;-72
2024/03/17 09:16:42;;;;;;;27.02;10.52;;;;;;;10.23;100.00;102040.75;6085350;19;20439;-73
2024/03/17 09:18:46;;;;;;;29.00;10.35;;;;;;;10.38;100.00;102040.50;6087208;19;20502;-74
2024/03/17 09:21:01;;;;;;;22.35;10.13;;;;;;;10.37;100.00;102033.50;6085052;19;20014;-73
2024/03/17 09:23:06;;;;;;;25.70;10.93;;;;;;;10.44;100.00;102032.47;6086697;19;20010;-75
2024/03/17 09:25:11;;;;;;;24.65;10.45;;;;;;;10.41;100.00;102036.94;6086005;19;20062;-74
2024/03/17 09:27:18;;;;;;;23.83;10.57;;;;;;;10.44;100.00;102029.00;6084548;19;20772;-73
2024/03/17 09:29:23;;;;;;;24.77;10.98;;;;;;;10.66;100.00;102029.38;6085444;19;20014;-74
2024/03/17 09:31:27;;;;;;;23.63;10.68;;;;;;;10.76;100.00;102033.53;6083246;19;20010;-74